createdAt,value
2022-08-16T00:01:10.817Z,22.57
2022-08-16T00:03:40.959Z,22.58
2022-08-16T00:06:08.582Z,22.74
2022-08-16T00:08:38.488Z,22.77
2022-08-16T00:11:15.722Z,22.53
2022-08-16T00:13:53.377Z,22.39
2022-08-16T00:17:06.038Z,22.38
2022-08-16T00:19:16.432Z,22.31
2022-08-16T00:21:44.916Z,22.41
2022-08-16T00:24:13.583Z,22.45
2022-08-16T00:26:59.029Z,22.55
2022-08-16T00:29:26.472Z,22.54
2022-08-16T00:32:05.539Z,22.47
2022-08-16T00:34:52.452Z,22.31
2022-08-16T00:37:57.951Z,22.41
2022-08-16T00:40:34.707Z,22.30
2022-08-16T00:43:19.287Z,22.39
2022-08-16T00:46:34.883Z,22.41
2022-08-16T00:49:17.672Z,22.46
2022-08-16T00:51:55.079Z,22.25
2022-08-16T00:54:27.466Z,22.17
2022-08-16T00:56:59.794Z,22.14
2022-08-16T00:59:32.888Z,22.14
2022-08-16T01:02:31.530Z,22.08
2022-08-16T01:05:09.462Z,22.19
2022-08-16T01:07:50.486Z,22.04
2022-08-16T01:10:32.367Z,21.97
2022-08-16T01:13:07.182Z,21.96
2022-08-16T01:15:43.164Z,22.02
2022-08-16T01:18:38.880Z,21.86
2022-08-16T01:21:39.712Z,21.96
2022-08-16T01:24:51.665Z,21.80
2022-08-16T01:27:26.539Z,21.71
2022-08-16T01:30:19.555Z,21.57
2022-08-16T01:33:02.766Z,21.67
2022-08-16T01:35:56.434Z,21.61
2022-08-16T01:38:28.517Z,21.66
2022-08-16T01:41:10.981Z,21.66
2022-08-16T01:43:40.726Z,21.60
2022-08-16T01:46:40.130Z,21.43
2022-08-16T01:49:45.513Z,21.53
2022-08-16T01:52:28.077Z,21.50
2022-08-16T01:55:05.831Z,21.60
2022-08-16T01:57:35.598Z,21.45
2022-08-16T02:00:10.583Z,21.34
2022-08-16T02:02:47.599Z,21.29
2022-08-16T02:05:21.264Z,21.16
2022-08-16T02:07:54.201Z,21.21
2022-08-16T02:10:24.536Z,21.21
2022-08-16T02:12:56.147Z,21.22
2022-08-16T02:15:38.707Z,21.31
2022-08-16T02:18:13.075Z,21.35
2022-08-16T02:20:45.359Z,21.30
2022-08-16T02:23:14.242Z,21.39
2022-08-16T02:25:52.100Z,21.22
2022-08-16T02:28:25.159Z,21.35
2022-08-16T02:30:58.465Z,21.21
2022-08-16T02:33:44.714Z,21.20
2022-08-16T02:36:48.110Z,20.99
2022-08-16T02:39:11.977Z,20.95
2022-08-16T02:41:44.459Z,21.02
2022-08-16T02:44:14.094Z,21.04
2022-08-16T02:46:49.873Z,20.96
2022-08-16T02:49:21.903Z,20.80
2022-08-16T02:51:59.573Z,20.89
2022-08-16T02:54:29.172Z,20.95
2022-08-16T02:56:56.653Z,20.92
2022-08-16T02:59:24.646Z,20.82
2022-08-16T03:02:08.852Z,20.86
2022-08-16T03:04:52.058Z,20.86
2022-08-16T03:07:27.694Z,20.67
2022-08-16T03:10:00.539Z,20.84
2022-08-16T03:12:37.740Z,20.97
2022-08-16T03:15:18.434Z,20.47
2022-08-16T03:17:53.420Z,20.23
2022-08-16T03:20:32.285Z,20.40
2022-08-16T03:23:02.674Z,20.32
2022-08-16T03:25:43.216Z,20.33
2022-08-16T03:28:13.236Z,20.23
2022-08-16T03:30:40.879Z,20.15
2022-08-16T03:33:11.375Z,20.14
2022-08-16T03:35:48.134Z,20.10
2022-08-16T03:38:34.818Z,20.02
2022-08-16T03:41:24.265Z,20.07
2022-08-16T03:43:57.351Z,20.14
2022-08-16T03:46:44.857Z,20.11
2022-08-16T03:49:22.378Z,20.22
2022-08-16T03:51:52.225Z,20.31
2022-08-16T03:54:28.426Z,20.30
2022-08-16T03:56:58.569Z,20.37
2022-08-16T03:59:30.134Z,20.41
2022-08-16T04:02:21.979Z,20.38
2022-08-16T04:05:12.220Z,20.41
2022-08-16T04:07:40.746Z,20.55
2022-08-16T04:10:35.624Z,20.52
2022-08-16T04:13:04.665Z,20.51
2022-08-16T04:15:34.005Z,20.57
2022-08-16T04:18:21.211Z,20.82
2022-08-16T04:20:50.407Z,20.71
2022-08-16T04:23:20.134Z,20.79
2022-08-16T04:25:47.643Z,20.77
2022-08-16T04:28:53.233Z,20.90
2022-08-16T04:31:03.045Z,21.15
2022-08-16T04:33:37.220Z,21.22
2022-08-16T04:36:05.424Z,21.20
2022-08-16T04:38:34.412Z,21.25
2022-08-16T04:41:02.856Z,21.39
2022-08-16T04:43:33.566Z,21.47
2022-08-16T04:46:03.422Z,21.71
2022-08-16T04:48:36.816Z,21.61
2022-08-16T04:51:12.691Z,21.55
2022-08-16T04:53:49.059Z,21.70
2022-08-16T04:56:19.842Z,21.71
2022-08-16T04:58:48.987Z,21.69
2022-08-16T05:01:20.353Z,21.67
2022-08-16T05:04:00.569Z,21.80
2022-08-16T05:06:42.386Z,21.81
2022-08-16T05:09:39.445Z,21.95
2022-08-16T05:12:13.686Z,22.03
2022-08-16T05:15:01.760Z,22.16
2022-08-16T05:17:32.975Z,22.44
2022-08-16T05:20:38.750Z,22.60
2022-08-16T05:22:54.017Z,22.73
2022-08-16T05:25:23.720Z,22.80
2022-08-16T05:28:10.855Z,22.83
2022-08-16T05:30:44.246Z,22.93
2022-08-16T05:33:22.739Z,23.07
2022-08-16T05:35:55.477Z,23.14
2022-08-16T05:38:39.041Z,23.18
2022-08-16T05:41:13.822Z,23.21
2022-08-16T05:43:46.848Z,23.25
2022-08-16T05:46:29.969Z,23.29
2022-08-16T05:49:09.300Z,23.43
2022-08-16T05:51:41.908Z,23.61
2022-08-16T05:54:17.439Z,24.08
2022-08-16T05:56:56.028Z,23.98
2022-08-16T05:59:24.819Z,24.42
2022-08-16T06:01:55.769Z,24.36
2022-08-16T06:04:35.481Z,24.39
2022-08-16T06:07:08.848Z,24.57
2022-08-16T06:09:43.395Z,24.65
2022-08-16T06:12:27.530Z,24.64
2022-08-16T06:15:08.021Z,24.77
2022-08-16T06:17:42.997Z,24.79
2022-08-16T06:20:25.401Z,24.92
2022-08-16T06:23:17.188Z,24.93
2022-08-16T06:26:07.796Z,25.06
2022-08-16T06:28:39.118Z,25.19
2022-08-16T06:31:13.978Z,25.26
2022-08-16T06:33:45.468Z,25.39
2022-08-16T06:36:16.638Z,25.69
2022-08-16T06:38:56.583Z,25.59
2022-08-16T06:41:47.607Z,25.79
2022-08-16T06:44:39.055Z,26.05
2022-08-16T06:47:17.402Z,25.88
2022-08-16T06:49:52.882Z,26.22
2022-08-16T06:52:57.810Z,26.13
2022-08-16T06:55:15.335Z,26.16
2022-08-16T06:57:48.189Z,26.24
2022-08-16T07:00:24.397Z,26.45
2022-08-16T07:03:27.467Z,26.68
2022-08-16T07:05:56.959Z,26.87
2022-08-16T07:08:29.535Z,27.06
2022-08-16T07:10:58.867Z,27.44
2022-08-16T07:13:57.707Z,27.48
2022-08-16T07:16:20.890Z,27.54
2022-08-16T07:18:58.726Z,27.59
2022-08-16T07:21:45.659Z,27.70
2022-08-16T07:24:29.469Z,27.76
2022-08-16T07:27:03.083Z,27.70
2022-08-16T07:29:32.047Z,27.92
2022-08-16T07:32:01.449Z,27.83
2022-08-16T07:34:35.297Z,27.90
2022-08-16T07:37:09.831Z,28.28
2022-08-16T07:40:11.464Z,28.32
2022-08-16T07:42:43.671Z,28.50
2022-08-16T07:45:13.740Z,28.52
2022-08-16T07:47:51.070Z,28.84
2022-08-16T07:50:56.901Z,28.97
2022-08-16T07:53:07.446Z,29.11
2022-08-16T07:55:45.576Z,29.23
2022-08-16T07:58:18.290Z,29.58
2022-08-16T08:01:05.700Z,30.01
2022-08-16T08:03:48.457Z,29.93
2022-08-16T08:06:24.974Z,29.85
2022-08-16T08:08:56.938Z,30.51
2022-08-16T08:11:28.231Z,30.18
2022-08-16T08:14:29.357Z,30.54
2022-08-16T08:17:01.473Z,30.58
2022-08-16T08:19:31.497Z,30.37
2022-08-16T08:22:02.497Z,30.48
2022-08-16T08:24:48.532Z,30.80
2022-08-16T08:27:22.978Z,31.14
2022-08-16T08:30:09.133Z,31.32
2022-08-16T08:33:00.346Z,31.35
2022-08-16T08:35:32.371Z,31.63
2022-08-16T08:38:02.299Z,31.85
2022-08-16T08:40:32.612Z,32.32
2022-08-16T08:43:12.078Z,31.82
2022-08-16T08:45:54.518Z,31.90
2022-08-16T08:48:33.281Z,32.10
2022-08-16T08:51:10.011Z,32.25
2022-08-16T08:53:57.736Z,32.69
2022-08-16T08:56:34.948Z,32.75
2022-08-16T08:59:28.498Z,32.32
2022-08-16T09:01:58.618Z,32.09
2022-08-16T09:04:31.441Z,32.30
2022-08-16T09:07:01.273Z,32.42
2022-08-16T09:09:33.397Z,32.73
2022-08-16T09:12:06.771Z,32.64
2022-08-16T09:14:52.605Z,32.70
2022-08-16T09:17:49.025Z,32.85
2022-08-16T09:20:16.654Z,33.03
2022-08-16T09:22:51.315Z,33.05
2022-08-16T09:25:39.081Z,33.36
2022-08-16T09:29:13.848Z,33.30
2022-08-16T09:31:16.056Z,33.51
2022-08-16T09:33:44.338Z,33.82
2022-08-16T09:36:31.939Z,33.91
2022-08-16T09:39:02.442Z,33.64
2022-08-16T09:41:30.095Z,33.72
2022-08-16T09:44:02.263Z,33.85
2022-08-16T09:46:44.923Z,33.90
2022-08-16T09:49:20.332Z,34.16
2022-08-16T09:51:55.623Z,34.28
2022-08-16T09:54:32.390Z,34.18
2022-08-16T09:57:00.313Z,34.19
2022-08-16T09:59:30.731Z,34.46
2022-08-16T10:01:58.945Z,34.33
2022-08-16T10:04:30.309Z,34.36
2022-08-16T10:07:03.157Z,34.67
2022-08-16T10:09:53.696Z,34.86
2022-08-16T10:12:44.682Z,35.00
2022-08-16T10:15:17.652Z,34.84
2022-08-16T10:17:59.582Z,34.97
2022-08-16T10:20:31.389Z,35.03
2022-08-16T10:23:03.623Z,35.41
2022-08-16T10:27:17.593Z,35.46
2022-08-16T10:28:28.802Z,35.48
2022-08-16T10:31:03.487Z,35.75
2022-08-16T10:33:34.168Z,35.64
2022-08-16T10:36:07.901Z,35.33
2022-08-16T10:38:37.879Z,35.86
2022-08-16T10:41:11.235Z,35.51
2022-08-16T10:43:43.979Z,35.45
2022-08-16T10:46:39.278Z,35.50
2022-08-16T10:49:05.260Z,35.66
2022-08-16T10:51:44.814Z,35.72
2022-08-16T10:54:28.474Z,36.14
2022-08-16T10:56:57.180Z,36.29
2022-08-16T10:59:38.204Z,36.41
2022-08-16T11:02:58.008Z,36.34
2022-08-16T11:05:05.939Z,36.53
2022-08-16T11:07:43.677Z,36.18
2022-08-16T11:11:05.056Z,35.95
2022-08-16T11:15:55.762Z,36.13
2022-08-16T11:18:48.461Z,36.24
2022-08-16T11:21:29.415Z,36.39
2022-08-16T11:23:59.624Z,36.46
2022-08-16T11:26:28.465Z,36.38
2022-08-16T11:29:14.546Z,36.39
2022-08-16T11:31:45.933Z,36.72
2022-08-16T11:34:21.879Z,36.72
2022-08-16T11:36:53.736Z,36.84
2022-08-16T11:39:28.371Z,36.76
2022-08-16T11:41:57.854Z,36.59
2022-08-16T11:44:52.890Z,36.99
2022-08-16T11:47:15.592Z,36.99
2022-08-16T11:49:42.992Z,37.33
2022-08-16T11:52:10.416Z,37.42
2022-08-16T11:54:40.277Z,37.75
2022-08-16T11:57:08.920Z,37.55
2022-08-16T11:59:39.809Z,37.81
2022-08-16T12:02:30.912Z,37.83
2022-08-16T12:04:57.835Z,37.80
2022-08-16T12:07:25.156Z,37.72
2022-08-16T12:09:54.128Z,37.87
2022-08-16T12:12:23.529Z,37.82
2022-08-16T12:14:59.256Z,37.84
2022-08-16T12:17:31.539Z,37.79
2022-08-16T12:20:05.302Z,38.06
2022-08-16T12:22:36.707Z,37.53
2022-08-16T12:25:10.648Z,37.64
2022-08-16T12:27:39.514Z,37.89
2022-08-16T12:30:21.383Z,37.86
2022-08-16T12:32:56.761Z,37.83
2022-08-16T12:35:26.362Z,37.90
2022-08-16T12:37:58.461Z,37.76
2022-08-16T12:40:32.022Z,38.11
2022-08-16T12:43:01.801Z,38.03
2022-08-16T12:45:40.529Z,38.28
2022-08-16T12:48:34.071Z,38.53
2022-08-16T12:51:19.337Z,38.40
2022-08-16T12:53:51.780Z,38.33
2022-08-16T12:56:21.957Z,38.38
2022-08-16T12:58:55.357Z,38.46
2022-08-16T13:01:27.615Z,38.46
2022-08-16T13:04:12.366Z,38.60
2022-08-16T13:06:46.148Z,38.49
2022-08-16T13:09:20.628Z,38.62
2022-08-16T13:12:00.662Z,38.78
2022-08-16T13:14:35.436Z,38.66
2022-08-16T13:17:10.261Z,38.45
2022-08-16T13:22:28.272Z,38.56
2022-08-16T13:24:55.666Z,38.40
2022-08-16T13:27:34.993Z,38.51
2022-08-16T13:30:36.311Z,38.64
2022-08-16T13:33:00.549Z,38.53
2022-08-16T13:35:34.455Z,38.43
2022-08-16T13:38:03.171Z,38.80
2022-08-16T13:40:31.175Z,39.02
2022-08-16T13:42:58.529Z,38.96
2022-08-16T13:45:26.180Z,38.72
2022-08-16T13:47:53.698Z,38.51
2022-08-16T13:50:31.443Z,38.65
2022-08-16T13:53:09.457Z,38.66
2022-08-16T13:55:37.462Z,38.23
2022-08-16T13:58:36.697Z,38.05
2022-08-16T14:00:59.138Z,38.05
2022-08-16T14:03:27.429Z,37.98
2022-08-16T14:05:57.657Z,38.39
2022-08-16T14:08:27.288Z,38.56
2022-08-16T14:10:55.590Z,38.66
2022-08-16T14:13:24.008Z,38.27
2022-08-16T14:15:51.381Z,37.50
2022-08-16T14:18:20.242Z,37.27
2022-08-16T14:20:48.957Z,37.30
2022-08-16T14:23:21.759Z,37.52
2022-08-16T14:25:54.074Z,37.56
2022-08-16T14:28:23.489Z,37.64
2022-08-16T14:30:51.436Z,37.27
2022-08-16T14:33:18.998Z,37.10
2022-08-16T14:35:49.086Z,37.54
2022-08-16T14:38:23.783Z,37.94
2022-08-16T14:40:55.172Z,38.31
2022-08-16T14:43:24.934Z,38.52
2022-08-16T14:45:54.669Z,38.89
2022-08-16T14:48:25.827Z,38.86
2022-08-16T14:50:55.352Z,39.21
2022-08-16T14:53:24.909Z,38.80
2022-08-16T14:55:53.904Z,38.41
2022-08-16T14:58:34.576Z,38.41
2022-08-16T15:01:05.033Z,38.26
2022-08-16T15:03:33.322Z,38.56
2022-08-16T15:06:05.586Z,38.93
2022-08-16T15:08:36.506Z,39.22
2022-08-16T15:11:10.197Z,39.03
2022-08-16T15:13:37.785Z,39.28
2022-08-16T15:16:06.223Z,39.56
2022-08-16T15:18:33.790Z,39.19
2022-08-16T15:21:05.057Z,39.32
2022-08-16T15:23:40.356Z,39.09
2022-08-16T15:26:09.876Z,39.14
2022-08-16T15:28:41.110Z,39.08
2022-08-16T15:31:13.071Z,38.77
2022-08-16T15:33:48.587Z,38.14
2022-08-16T15:36:21.394Z,37.96
2022-08-16T15:39:02.105Z,37.37
2022-08-16T15:42:03.926Z,37.00
2022-08-16T15:44:44.556Z,36.48
2022-08-16T15:47:24.291Z,36.12
2022-08-16T15:49:56.034Z,35.92
2022-08-16T15:52:31.123Z,35.58
2022-08-16T15:55:07.542Z,35.39
2022-08-16T15:57:41.828Z,35.08
2022-08-16T16:00:15.395Z,35.16
2022-08-16T16:02:44.078Z,35.24
2022-08-16T16:05:12.381Z,35.24
2022-08-16T16:07:56.381Z,35.17
2022-08-16T16:10:29.897Z,35.00
2022-08-16T16:13:00.434Z,34.84
2022-08-16T16:15:32.394Z,34.68
2022-08-16T16:17:59.778Z,34.47
2022-08-16T16:20:39.021Z,34.40
2022-08-16T16:23:10.050Z,34.16
2022-08-16T16:25:39.988Z,34.07
2022-08-16T16:29:05.765Z,33.98
2022-08-16T16:31:04.825Z,33.78
2022-08-16T16:33:34.131Z,33.67
2022-08-16T16:36:06.821Z,33.48
2022-08-16T16:38:35.203Z,33.33
2022-08-16T16:41:09.309Z,33.41
2022-08-16T16:43:43.844Z,33.25
2022-08-16T16:46:40.799Z,33.21
2022-08-16T16:49:07.602Z,32.99
2022-08-16T16:51:40.809Z,32.96
2022-08-16T16:54:12.880Z,32.68
2022-08-16T16:56:49.517Z,32.61
2022-08-16T16:59:20.126Z,32.54
2022-08-16T17:02:00.350Z,32.49
2022-08-16T17:04:38.244Z,32.61
2022-08-16T17:07:10.637Z,32.42
2022-08-16T17:09:40.606Z,32.30
2022-08-16T17:12:14.562Z,32.21
2022-08-16T17:14:58.060Z,32.05
2022-08-16T17:17:27.252Z,31.88
2022-08-16T17:19:57.096Z,31.79
2022-08-16T17:22:32.982Z,31.74
2022-08-16T17:25:01.298Z,31.72
2022-08-16T17:27:32.622Z,31.50
2022-08-16T17:30:16.385Z,31.32
2022-08-16T17:32:50.527Z,31.24
2022-08-16T17:35:40.292Z,31.34
2022-08-16T17:38:11.158Z,31.33
2022-08-16T17:40:52.033Z,31.13
2022-08-16T17:43:33.573Z,31.06
2022-08-16T17:46:41.511Z,31.01
2022-08-16T17:49:11.810Z,31.35
2022-08-16T17:51:39.690Z,30.91
2022-08-16T17:54:07.250Z,30.79
2022-08-16T17:56:47.155Z,30.64
2022-08-16T17:59:14.842Z,30.61
2022-08-16T18:01:42.823Z,30.71
2022-08-16T18:04:10.281Z,30.33
2022-08-16T18:06:39.742Z,30.27
2022-08-16T18:09:10.429Z,30.08
2022-08-16T18:11:43.081Z,30.01
2022-08-16T18:14:13.311Z,29.98
2022-08-16T18:16:42.947Z,30.18
2022-08-16T18:19:11.245Z,30.30
2022-08-16T18:21:57.472Z,30.54
2022-08-16T18:24:30.934Z,30.47
2022-08-16T18:27:21.904Z,30.58
2022-08-16T18:29:46.847Z,30.02
2022-08-16T18:32:22.030Z,29.98
2022-08-16T18:34:52.122Z,29.92
2022-08-16T18:37:19.479Z,29.85
2022-08-16T18:39:48.122Z,29.78
2022-08-16T18:42:16.047Z,29.67
2022-08-16T18:44:46.069Z,29.67
2022-08-16T18:47:13.585Z,29.72
2022-08-16T18:49:43.234Z,29.58
2022-08-16T18:52:25.194Z,29.70
2022-08-16T18:55:01.571Z,30.12
2022-08-16T18:57:30.794Z,30.20
2022-08-16T18:59:59.712Z,30.56
2022-08-16T19:02:56.051Z,30.22
2022-08-16T19:05:22.369Z,30.07
2022-08-16T19:07:50.199Z,29.98
2022-08-16T19:10:19.146Z,29.85
2022-08-16T19:12:47.839Z,29.87
2022-08-16T19:15:21.706Z,29.76
2022-08-16T19:17:52.975Z,29.63
2022-08-16T19:20:24.306Z,29.62
2022-08-16T19:23:05.114Z,29.52
2022-08-16T19:25:48.332Z,29.46
2022-08-16T19:28:45.937Z,29.48
2022-08-16T19:31:15.592Z,29.32
2022-08-16T19:33:53.646Z,29.33
2022-08-16T19:36:31.457Z,29.21
2022-08-16T19:39:14.344Z,29.26
2022-08-16T19:41:45.822Z,29.19
2022-08-16T19:44:13.886Z,29.03
2022-08-16T19:46:45.025Z,28.79
2022-08-16T19:49:16.265Z,28.76
2022-08-16T19:51:48.408Z,28.46
2022-08-16T19:54:17.987Z,28.31
2022-08-16T19:56:46.783Z,28.30
2022-08-16T19:59:39.703Z,28.33
2022-08-16T20:02:32.637Z,28.27
2022-08-16T20:05:05.924Z,28.32
2022-08-16T20:07:34.418Z,28.22
2022-08-16T20:10:06.438Z,28.25
2022-08-16T20:12:36.023Z,28.25
2022-08-16T20:15:07.859Z,28.24
2022-08-16T20:17:38.542Z,28.19
2022-08-16T20:20:08.013Z,28.12
2022-08-16T20:22:53.364Z,28.13
2022-08-16T20:25:33.643Z,28.07
2022-08-16T20:28:09.536Z,27.97
2022-08-16T20:30:37.419Z,27.99
2022-08-16T20:33:14.031Z,27.84
2022-08-16T20:35:43.946Z,27.85
2022-08-16T20:38:13.365Z,27.88
2022-08-16T20:40:42.747Z,27.77
2022-08-16T20:43:16.286Z,27.76
2022-08-16T20:45:46.294Z,27.72
2022-08-16T20:48:14.411Z,27.85
2022-08-16T20:50:43.172Z,27.80
2022-08-16T20:53:14.564Z,27.70
2022-08-16T20:55:42.555Z,27.72
2022-08-16T20:58:10.044Z,27.88
2022-08-16T21:00:37.623Z,27.57
2022-08-16T21:03:10.911Z,27.57
2022-08-16T21:05:39.919Z,27.49
2022-08-16T21:08:51.021Z,27.49
2022-08-16T21:10:55.333Z,27.49
2022-08-16T21:13:25.376Z,27.39
2022-08-16T21:15:55.785Z,27.40
2022-08-16T21:18:26.124Z,27.32
2022-08-16T21:20:56.323Z,27.25
2022-08-16T21:23:26.250Z,27.20
2022-08-16T21:25:58.944Z,27.20
2022-08-16T21:28:40.758Z,27.09
2022-08-16T21:31:14.728Z,26.83
2022-08-16T21:33:55.110Z,26.63
2022-08-16T21:36:35.347Z,26.60
2022-08-16T21:39:05.804Z,26.76
2022-08-16T21:41:34.796Z,27.10
2022-08-16T21:44:05.757Z,26.71
2022-08-16T21:46:34.075Z,26.32
2022-08-16T21:49:01.623Z,26.13
2022-08-16T21:51:29.205Z,25.88
2022-08-16T21:53:56.989Z,25.87
2022-08-16T21:56:24.439Z,26.01
2022-08-16T21:58:53.147Z,25.68
2022-08-16T22:01:24.262Z,25.62
2022-08-16T22:04:01.719Z,25.32
2022-08-16T22:06:41.667Z,25.50
2022-08-16T22:09:12.241Z,25.50
2022-08-16T22:11:39.931Z,25.36
2022-08-16T22:14:10.460Z,25.26
2022-08-16T22:16:40.212Z,25.23
2022-08-16T22:19:07.948Z,25.42
2022-08-16T22:21:36.009Z,25.32
2022-08-16T22:24:04.706Z,25.21
2022-08-16T22:26:39.577Z,25.32
2022-08-16T22:29:12.847Z,25.33
2022-08-16T22:31:41.303Z,25.37
2022-08-16T22:34:09.196Z,25.43
2022-08-16T22:36:36.948Z,25.34
2022-08-16T22:39:08.198Z,25.25
2022-08-16T22:41:37.139Z,25.15
2022-08-16T22:44:06.516Z,25.03
2022-08-16T22:46:36.624Z,25.21
2022-08-16T22:49:06.520Z,25.10
2022-08-16T22:51:34.780Z,24.97
2022-08-16T22:54:39.315Z,24.93
2022-08-16T22:56:49.990Z,24.75
2022-08-16T22:59:17.447Z,24.66
2022-08-16T23:01:44.811Z,24.54
2022-08-16T23:04:12.913Z,24.40
2022-08-16T23:06:40.332Z,24.32
2022-08-16T23:09:07.710Z,24.13
2022-08-16T23:11:35.591Z,24.33
2022-08-16T23:14:03.132Z,24.23
2022-08-16T23:16:34.607Z,24.16
2022-08-16T23:19:09.101Z,24.20
2022-08-16T23:21:39.214Z,24.23
2022-08-16T23:24:08.003Z,24.31
2022-08-16T23:26:47.967Z,24.43
2022-08-16T23:29:25.261Z,24.47
2022-08-16T23:31:56.405Z,24.46
2022-08-16T23:34:24.992Z,24.46
2022-08-16T23:36:52.725Z,24.51
2022-08-16T23:39:20.872Z,24.57
2022-08-16T23:41:49.051Z,24.53
2022-08-16T23:44:57.127Z,24.49
2022-08-16T23:47:07.260Z,24.67
2022-08-16T23:49:56.239Z,24.60
2022-08-16T23:52:45.724Z,24.58
2022-08-16T23:55:10.341Z,24.51
2022-08-16T23:57:37.737Z,24.26
